Time;durP1;ratioP1;P1;durP2;ratioP2;P2;SDS_P1;SDS_P2;PMS_P1;PMS_P2;Temp;Humidity;BMP_temperature;BMP_pressure;BME280_temperature;BME280_humidity;BME280_pressure;Samples;Min_cycle;Max_cycle;Signal;HPM_P1;HPM_P2
2022/09/11 00:01:25;;;;;;;20.50;19.20;;;;;;;14.27;100.00;101613.97;5072756;28;21060;-55
2022/09/11 00:03:55;;;;;;;19.77;18.47;;;;;;;14.27;100.00;101608.63;5072446;28;20438;-55
2022/09/11 00:06:24;;;;;;;23.47;22.17;;;;;;;14.27;100.00;101613.97;5072432;28;20993;-54
2022/09/11 00:08:59;;;;;;;22.10;20.60;;;;;;;14.21;100.00;101611.28;5072111;28;20482;-54
2022/09/11 00:11:29;;;;;;;20.97;19.73;;;;;;;14.21;100.00;101617.47;5072112;28;20451;-52
2022/09/11 00:13:57;;;;;;;21.50;19.87;;;;;;;14.21;100.00;101614.78;5072106;28;20516;-54
2022/09/11 00:16:27;;;;;;;20.97;19.80;;;;;;;14.22;100.00;101610.22;5071827;28;20466;-56
2022/09/11 00:18:59;;;;;;;22.30;21.00;;;;;;;14.23;100.00;101622.63;5072195;28;20433;-56
2022/09/11 00:21:28;;;;;;;25.10;23.30;;;;;;;14.20;100.00;101626.53;5072110;28;20450;-48
2022/09/11 00:23:56;;;;;;;24.83;23.13;;;;;;;14.19;100.00;101610.63;5072091;28;20434;-49
2022/09/11 00:26:24;;;;;;;24.00;22.50;;;;;;;14.15;100.00;101617.44;5072009;28;20438;-55
2022/09/11 00:28:52;;;;;;;25.20;23.60;;;;;;;14.12;100.00;101628.56;5071844;28;20492;-54
2022/09/11 00:31:22;;;;;;;25.63;23.93;;;;;;;14.12;100.00;101623.19;5071976;28;20508;-56
2022/09/11 00:33:50;;;;;;;27.00;25.30;;;;;;;14.09;100.00;101619.06;5071654;28;20434;-54
2022/09/11 00:36:21;;;;;;;25.17;23.67;;;;;;;14.07;100.00;101622.94;5071931;28;20460;-55
2022/09/11 00:38:49;;;;;;;25.47;23.40;;;;;;;14.08;100.00;101627.28;5071427;28;20458;-53
2022/09/11 00:41:19;;;;;;;26.60;25.00;;;;;;;14.07;100.00;101622.94;5071839;28;20458;-56
2022/09/11 00:43:56;;;;;;;27.73;25.90;;;;;;;14.06;100.00;101619.44;5071699;28;20512;-56
2022/09/11 00:46:30;;;;;;;27.07;25.47;;;;;;;14.06;100.00;101613.25;5071932;28;20434;-53
2022/09/11 00:48:59;;;;;;;27.10;25.30;;;;;;;14.03;100.00;101617.16;5071573;28;20453;-54
2022/09/11 00:51:33;;;;;;;26.73;24.93;;;;;;;14.03;100.00;101613.66;5070964;28;20553;-53
2022/09/11 00:54:04;;;;;;;31.97;29.97;;;;;;;14.01;100.00;101624.56;5064039;28;20430;-55
2022/09/11 00:56:35;;;;;;;29.70;27.53;;;;;;;14.01;100.00;101616.50;5071170;28;20846;-53
2022/09/11 00:59:04;;;;;;;29.10;27.33;;;;;;;14.01;100.00;101618.38;5071621;28;20484;-56
2022/09/11 01:01:32;;;;;;;30.60;28.50;;;;;;;14.00;100.00;101622.91;5071543;28;20519;-55
2022/09/11 01:04:02;;;;;;;33.57;31.37;;;;;;;13.97;100.00;101622.47;5071516;28;20507;-54
2022/09/11 01:06:32;;;;;;;33.70;31.57;;;;;;;13.96;100.00;101623.50;5071230;28;20496;-54
2022/09/11 01:08:59;;;;;;;31.43;29.43;;;;;;;13.95;100.00;101624.53;5071545;28;20504;-51
2022/09/11 01:11:41;;;;;;;32.47;30.57;;;;;;;13.93;100.00;101626.56;5071465;28;20870;-55
2022/09/11 01:14:21;;;;;;;33.03;31.13;;;;;;;13.91;100.00;101624.09;5071318;28;21049;-56
2022/09/11 01:16:54;;;;;;;35.50;33.60;;;;;;;13.88;100.00;101629.03;5075281;28;20871;-53
2022/09/11 01:19:37;;;;;;;33.97;31.80;;;;;;;13.81;100.00;101632.47;5075597;28;20922;-53
2022/09/11 01:22:20;;;;;;;36.80;33.93;;;;;;;13.78;100.00;101629.38;5075272;28;20458;-54
2022/09/11 01:24:55;;;;;;;36.13;33.80;;;;;;;13.70;100.00;101625.00;5075352;28;20496;-56
2022/09/11 01:27:41;;;;;;;40.10;37.63;;;;;;;13.71;100.00;101632.00;5075055;28;20461;-55
2022/09/11 01:30:12;;;;;;;53.87;51.00;;;;;;;13.65;100.00;101635.44;5075470;28;20434;-55
2022/09/11 01:33:02;;;;;;;61.67;58.67;;;;;;;13.65;100.00;101640.00;5075034;28;20507;-55
2022/09/11 01:35:41;;;;;;;74.60;71.10;;;;;;;13.62;100.00;101635.03;5075501;28;20430;-53
2022/09/11 01:38:16;;;;;;;78.43;74.73;;;;;;;13.60;100.00;101637.91;5074793;28;20482;-55
2022/09/11 01:40:51;;;;;;;79.70;76.00;;;;;;;13.59;100.00;101641.59;5074962;28;21028;-55
2022/09/11 01:43:25;;;;;;;93.93;90.03;;;;;;;13.59;100.00;101643.47;5075216;28;20426;-52
2022/09/11 01:45:56;;;;;;;74.57;71.17;;;;;;;13.58;100.00;101642.63;5075187;28;20487;-55
2022/09/11 01:48:28;;;;;;;97.37;93.37;;;;;;;13.59;100.00;101638.09;5074516;28;20462;-55
2022/09/11 01:50:59;;;;;;;94.77;90.67;;;;;;;13.55;100.00;101640.34;5074934;28;20446;-55
2022/09/11 01:53:33;;;;;;;94.67;90.33;;;;;;;13.50;100.00;101640.06;5074775;28;21101;-56
2022/09/11 01:56:05;;;;;;;82.73;79.27;;;;;;;13.46;100.00;101640.66;5074835;28;20422;-55
2022/09/11 01:58:35;;;;;;;82.27;79.00;;;;;;;13.39;100.00;101635.25;5074605;28;20478;-53
2022/09/11 02:01:07;;;;;;;90.20;86.50;;;;;;;13.32;100.00;101631.66;5074624;28;20488;-53
2022/09/11 02:03:39;;;;;;;93.57;89.87;;;;;;;13.28;100.00;101628.56;5074401;28;20867;-53
2022/09/11 02:06:11;;;;;;;101.70;97.50;;;;;;;13.24;100.00;101632.66;5074965;28;20572;-54
2022/09/11 02:08:45;;;;;;;93.87;90.33;;;;;;;13.19;100.00;101636.94;5074204;28;20462;-54
2022/09/11 02:11:15;;;;;;;97.97;93.73;;;;;;;13.13;100.00;101633.16;5074848;28;20499;-55
2022/09/11 02:13:49;;;;;;;92.50;89.00;;;;;;;13.09;100.00;101629.22;5074281;28;20935;-55
2022/09/11 02:16:25;;;;;;;103.70;98.80;;;;;;;13.05;100.00;101627.88;5074458;28;20444;-54
2022/09/11 02:18:59;;;;;;;94.90;90.70;;;;;;;13.00;100.00;101635.69;5074053;28;20504;-48
2022/09/11 02:21:27;;;;;;;96.50;92.13;;;;;;;12.97;100.00;101629.88;5074509;28;20552;-55
2022/09/11 02:23:55;;;;;;;93.73;90.13;;;;;;;12.93;100.00;101632.09;5074102;28;21018;-53
2022/09/11 02:26:24;;;;;;;97.40;93.40;;;;;;;12.90;100.00;101632.50;5074564;28;20430;-55
2022/09/11 02:28:54;;;;;;;100.13;95.83;;;;;;;12.86;100.00;101631.22;5074159;28;20480;-55
2022/09/11 02:31:23;;;;;;;97.43;93.27;;;;;;;12.89;100.00;101628.16;5074461;28;20511;-53
2022/09/11 02:33:51;;;;;;;96.50;92.43;;;;;;;12.91;100.00;101633.31;5074097;28;20436;-55
2022/09/11 02:36:59;;;;;;;104.47;99.93;;;;;;;12.93;100.00;101639.31;5074334;28;20527;-55
2022/09/11 02:39:38;;;;;;;94.20;90.07;;;;;;;12.92;100.00;101638.47;5011792;28;20534;-52
2022/09/11 02:42:18;;;;;;;103.87;99.90;;;;;;;12.91;100.00;101633.31;5069183;28;20485;-51
2022/09/11 02:44:54;;;;;;;106.67;102.13;;;;;;;12.88;100.00;101631.00;5073939;28;20422;-53
2022/09/11 02:47:36;;;;;;;106.30;102.03;;;;;;;12.87;100.00;101637.41;5073679;28;20462;-55
2022/09/11 02:50:10;;;;;;;104.87;100.80;;;;;;;12.86;100.00;101641.09;5074068;28;20430;-55
2022/09/11 02:52:48;;;;;;;123.40;118.83;;;;;;;12.82;100.00;101645.16;5073729;28;20511;-55
2022/09/11 02:55:21;;;;;;;123.40;118.50;;;;;;;12.77;100.00;101649.25;5074151;28;20419;-54
2022/09/11 02:57:58;;;;;;;132.47;127.37;;;;;;;12.85;100.00;101658.16;5073424;28;20524;-55
2022/09/11 03:00:27;;;;;;;131.70;126.30;;;;;;;12.93;100.00;101655.38;5073692;28;20864;-55
2022/09/11 03:02:55;;;;;;;152.87;147.03;;;;;;;13.00;100.00;101654.41;5073772;28;20422;-53
2022/09/11 03:05:23;;;;;;;150.13;144.47;;;;;;;13.04;100.00;101662.91;5073427;28;20430;-52
2022/09/11 03:07:50;;;;;;;154.67;149.00;;;;;;;13.06;100.00;101663.53;5073113;28;20466;-54
2022/09/11 03:10:18;;;;;;;150.17;144.67;;;;;;;13.09;100.00;101666.69;5073359;28;20435;-52
2022/09/11 03:12:45;;;;;;;153.10;147.23;;;;;;;13.09;100.00;101676.56;5073250;28;20438;-51
2022/09/11 03:15:15;;;;;;;170.97;164.87;;;;;;;13.09;100.00;101680.09;5073543;28;20438;-55
2022/09/11 03:17:44;;;;;;;167.87;161.50;;;;;;;13.10;100.00;101679.06;5072921;28;20883;-51
2022/09/11 03:20:12;;;;;;;180.53;174.33;;;;;;;13.10;100.00;101667.53;5073377;28;20426;-56
2022/09/11 03:22:40;;;;;;;178.90;172.27;;;;;;;13.08;100.00;101675.75;5073116;28;20575;-53
2022/09/11 03:25:09;;;;;;;170.37;164.30;;;;;;;13.06;100.00;101668.88;5072742;28;20492;-51
2022/09/11 03:27:38;;;;;;;194.20;187.60;;;;;;;13.04;100.00;101671.78;5072477;28;21020;-51
2022/09/11 03:30:07;;;;;;;178.97;172.67;;;;;;;13.02;100.00;101676.47;5073396;28;20483;-49
2022/09/11 03:32:35;;;;;;;181.57;175.00;;;;;;;13.00;100.00;101667.81;5073131;28;20462;-48
2022/09/11 03:35:04;;;;;;;189.00;182.50;;;;;;;13.00;100.00;101673.16;5073159;28;20468;-47
2022/09/11 03:37:31;;;;;;;196.17;189.47;;;;;;;12.98;100.00;101675.22;5072103;28;20528;-47
2022/09/11 03:40:00;;;;;;;204.13;197.23;;;;;;;12.99;100.00;101673.38;5072992;28;20547;-49
2022/09/11 03:42:28;;;;;;;202.33;195.43;;;;;;;12.96;100.00;101673.75;5072753;28;20454;-48
2022/09/11 03:44:55;;;;;;;202.80;195.70;;;;;;;12.95;100.00;101670.22;5071664;28;20458;-48
2022/09/11 03:47:23;;;;;;;201.67;194.80;;;;;;;12.91;100.00;101668.94;5071702;28;21048;-47
2022/09/11 03:49:51;;;;;;;196.03;189.23;;;;;;;12.91;100.00;101670.78;5072660;28;20427;-48
2022/09/11 03:52:20;;;;;;;216.37;209.07;;;;;;;12.93;100.00;101674.13;5071330;28;20458;-47
2022/09/11 03:54:47;;;;;;;218.40;210.97;;;;;;;12.90;100.00;101672.66;5072693;28;20464;-47
2022/09/11 03:57:15;;;;;;;217.90;210.50;;;;;;;12.90;100.00;101677.19;5072423;28;20508;-47
2022/09/11 03:59:43;;;;;;;222.03;214.73;;;;;;;12.87;100.00;101688.25;5072732;28;20470;-54
2022/09/11 04:02:10;;;;;;;235.43;227.30;;;;;;;12.86;100.00;101678.56;5071844;28;20540;-55
2022/09/11 04:04:38;;;;;;;226.13;218.43;;;;;;;12.82;100.00;101677.28;5071859;28;20496;-52
2022/09/11 04:07:06;;;;;;;228.43;221.03;;;;;;;12.81;100.00;101675.63;5071764;28;20454;-51
2022/09/11 04:09:34;;;;;;;237.33;229.23;;;;;;;12.81;100.00;101681.81;5072031;28;20430;-51
2022/09/11 04:12:02;;;;;;;243.97;235.63;;;;;;;12.81;100.00;101673.78;5071479;28;20991;-54
2022/09/11 04:14:30;;;;;;;262.93;254.23;;;;;;;12.80;100.00;101682.81;5072103;28;20476;-54
2022/09/11 04:16:58;;;;;;;273.17;263.97;;;;;;;12.80;100.00;101680.16;5071817;28;20539;-50
2022/09/11 04:19:26;;;;;;;270.47;261.00;;;;;;;12.75;100.00;101680.69;5072242;28;20508;-52
2022/09/11 04:21:54;;;;;;;276.60;267.20;;;;;;;12.75;100.00;101685.25;5072178;28;20870;-53
2022/09/11 04:24:21;;;;;;;284.57;275.07;;;;;;;12.74;100.00;101692.44;5072003;28;20495;-55
2022/09/11 04:26:50;;;;;;;283.33;273.67;;;;;;;12.70;100.00;101701.00;5071681;28;20608;-49
2022/09/11 04:29:18;;;;;;;285.00;275.23;;;;;;;12.67;100.00;101698.72;5071925;28;20928;-52
2022/09/11 04:31:46;;;;;;;288.07;278.70;;;;;;;12.63;100.00;101700.13;5072207;28;20506;-51
2022/09/11 04:34:13;;;;;;;279.90;270.40;;;;;;;12.59;100.00;101702.34;5071849;28;20484;-52
2022/09/11 04:36:42;;;;;;;284.70;275.10;;;;;;;12.53;100.00;101702.25;5071144;28;21012;-53
2022/09/11 04:39:11;;;;;;;286.57;276.83;;;;;;;12.47;100.00;101700.31;5071496;28;20470;-50
2022/09/11 04:41:38;;;;;;;290.60;280.70;;;;;;;12.42;100.00;101700.03;5071439;28;20859;-50
2022/09/11 04:44:07;;;;;;;274.50;264.57;;;;;;;12.36;100.00;101701.63;5071462;28;20471;-52
2022/09/11 04:46:35;;;;;;;224.67;216.73;;;;;;;12.35;100.00;101707.13;5071337;28;20491;-50
2022/09/11 04:49:03;;;;;;;230.97;222.30;;;;;;;12.39;100.00;101708.44;5071479;28;20433;-53
2022/09/11 04:51:33;;;;;;;236.50;227.53;;;;;;;12.45;100.00;101719.25;5070940;28;20454;-49
2022/09/11 04:54:02;;;;;;;254.50;245.00;;;;;;;12.49;100.00;101712.47;5071414;28;20431;-48
2022/09/11 04:56:33;;;;;;;252.10;243.00;;;;;;;12.55;100.00;101718.94;5071155;28;20460;-52
2022/09/11 04:59:03;;;;;;;248.07;239.33;;;;;;;12.56;100.00;101712.56;5071444;28;20523;-55
2022/09/11 05:01:34;;;;;;;252.93;243.60;;;;;;;12.59;100.00;101718.38;5071351;28;20516;-55
2022/09/11 05:04:02;;;;;;;264.30;254.90;;;;;;;12.61;100.00;101720.88;5071267;28;20491;-55
2022/09/11 05:06:30;;;;;;;271.67;261.93;;;;;;;12.62;100.00;101718.03;5071191;28;20487;-55
2022/09/11 05:09:01;;;;;;;260.40;251.27;;;;;;;12.65;100.00;101717.66;5071508;28;20423;-54
2022/09/11 05:11:29;;;;;;;268.93;259.00;;;;;;;12.69;100.00;101720.78;5059478;28;21051;-52
2022/09/11 05:13:58;;;;;;;274.00;264.43;;;;;;;12.76;100.00;101725.19;5051376;28;20438;-55
2022/09/11 05:16:28;;;;;;;299.83;288.97;;;;;;;12.85;100.00;101733.09;5051078;28;20431;-55
2022/09/11 05:18:58;;;;;;;315.67;303.17;;;;;;;12.92;100.00;101729.50;5051382;28;20538;-55
2022/09/11 05:21:27;;;;;;;305.13;294.13;;;;;;;12.96;100.00;101733.44;5050627;28;20452;-52
2022/09/11 05:23:56;;;;;;;308.13;296.73;;;;;;;13.07;100.00;101737.50;5051476;28;20435;-55
2022/09/11 05:26:25;;;;;;;303.60;292.53;;;;;;;13.15;100.00;101734.75;5027562;28;20532;-55
2022/09/11 05:28:54;;;;;;;315.27;303.53;;;;;;;13.20;100.00;101737.69;5051392;28;20431;-55
2022/09/11 05:31:22;;;;;;;323.47;311.70;;;;;;;13.24;100.00;101737.13;5051049;28;20447;-55
2022/09/11 05:33:51;;;;;;;318.50;306.70;;;;;;;13.30;100.00;101738.19;5050982;28;20531;-54
2022/09/11 05:36:20;;;;;;;314.23;302.83;;;;;;;13.38;100.00;101740.75;5050565;28;20455;-55
2022/09/11 05:38:48;;;;;;;327.37;315.07;;;;;;;13.49;100.00;101734.91;5050051;28;20994;-56
2022/09/11 05:41:16;;;;;;;330.40;318.00;;;;;;;13.57;100.00;101737.44;5051048;28;20537;-55
2022/09/11 05:43:44;;;;;;;347.83;334.57;;;;;;;13.68;100.00;101731.56;5050895;28;20437;-52
2022/09/11 05:46:12;;;;;;;326.87;315.00;;;;;;;13.83;100.00;101736.84;5048823;28;20470;-55
2022/09/11 05:48:40;;;;;;;326.37;314.27;;;;;;;14.08;100.00;101740.75;5050664;28;20439;-55
2022/09/11 05:51:11;;;;;;;322.93;311.53;;;;;;;14.75;100.00;101745.53;5050898;28;20455;-54
2022/09/11 05:53:41;;;;;;;324.77;313.30;;;;;;;15.17;100.00;101745.28;5068336;28;20434;-55
2022/09/11 05:56:10;;;;;;;317.10;306.20;;;;;;;16.04;100.00;101748.72;5070493;28;20462;-56
2022/09/11 05:58:38;;;;;;;317.47;307.07;;;;;;;16.62;100.00;101750.72;5070975;28;20430;-55
2022/09/11 06:01:07;;;;;;;328.03;317.43;;;;;;;16.79;100.00;101751.91;5071415;28;20478;-53
2022/09/11 06:03:35;;;;;;;340.63;329.43;;;;;;;16.67;100.00;101742.81;5074618;28;20487;-56
2022/09/11 06:06:05;;;;;;;322.50;312.40;;;;;;;17.17;100.00;101751.97;5074317;28;20496;-54
2022/09/11 06:08:33;;;;;;;316.97;307.10;;;;;;;17.15;100.00;101750.31;5074082;28;20475;-55
2022/09/11 06:11:06;;;;;;;303.80;294.63;;;;;;;17.61;100.00;101751.94;5073736;28;20499;-53
2022/09/11 06:13:37;;;;;;;204.60;198.60;;;;;;;18.60;100.00;101755.41;5074167;28;20926;-55
2022/09/11 06:16:08;;;;;;;277.33;269.33;;;;;;;18.39;100.00;101749.59;5072685;28;20682;-52
2022/09/11 06:18:36;;;;;;;260.03;252.63;;;;;;;18.71;100.00;101757.38;5074232;28;20946;-53
2022/09/11 06:21:06;;;;;;;182.73;177.33;;;;;;;19.67;100.00;101759.22;5074303;28;20481;-49
2022/09/11 06:23:34;;;;;;;163.00;158.00;;;;;;;20.36;100.00;101758.50;5086470;28;20478;-55
2022/09/11 06:26:04;;;;;;;130.67;126.57;;;;;;;21.25;99.12;101767.97;5077387;28;20458;-55
2022/09/11 06:28:34;;;;;;;124.40;120.37;;;;;;;21.98;92.00;101757.09;5074215;28;20891;-54
2022/09/11 06:31:02;;;;;;;115.30;111.70;;;;;;;22.36;79.56;101762.56;5074104;28;20511;-54
2022/09/11 06:33:32;;;;;;;131.93;127.93;;;;;;;22.49;87.83;101762.19;5072483;28;20436;-51
2022/09/11 06:36:01;;;;;;;140.13;135.93;;;;;;;22.32;85.06;101755.16;5073851;28;20839;-52
2022/09/11 06:38:28;;;;;;;157.60;152.93;;;;;;;21.68;77.64;101753.84;5074046;28;20434;-55
2022/09/11 06:40:56;;;;;;;121.27;117.57;;;;;;;21.62;83.80;101761.09;5073825;28;20554;-54
2022/09/11 06:43:25;;;;;;;119.37;115.77;;;;;;;20.96;77.21;101770.66;5073942;28;20452;-54
2022/09/11 06:45:52;;;;;;;117.40;113.80;;;;;;;20.63;81.45;101777.78;5072829;28;20519;-54
2022/09/11 06:48:20;;;;;;;91.57;88.67;;;;;;;20.16;79.79;101772.34;5073828;28;20550;-54
2022/09/11 06:50:47;;;;;;;68.67;66.37;;;;;;;19.99;84.05;101773.28;5074039;28;20511;-54
2022/09/11 06:53:15;;;;;;;52.17;50.27;;;;;;;19.65;84.72;101775.66;5071982;28;20434;-51
2022/09/11 06:55:42;;;;;;;30.30;29.20;;;;;;;19.66;85.51;101777.34;5073519;28;20499;-54
2022/09/11 06:58:10;;;;;;;18.70;17.90;;;;;;;19.50;89.02;101775.31;5073835;28;20491;-54
2022/09/11 07:00:39;;;;;;;15.17;14.57;;;;;;;19.25;86.28;101777.28;5073618;28;20564;-52
2022/09/11 07:03:07;;;;;;;12.63;12.13;;;;;;;19.75;91.20;101781.34;5073542;28;20479;-52
2022/09/11 07:05:34;;;;;;;13.87;13.23;;;;;;;20.03;85.78;101786.13;5073561;28;21007;-54
2022/09/11 07:08:02;;;;;;;11.87;11.37;;;;;;;19.58;82.32;101787.66;5072939;28;20479;-54
2022/09/11 07:10:30;;;;;;;11.90;11.23;;;;;;;20.03;80.37;101786.13;5073617;28;20529;-50
2022/09/11 07:12:57;;;;;;;11.03;10.53;;;;;;;19.82;81.39;101786.69;5072500;28;20430;-54
2022/09/11 07:15:25;;;;;;;10.03;9.60;;;;;;;19.80;81.58;101783.38;5073485;28;20434;-54
2022/09/11 07:17:54;;;;;;;9.90;9.40;;;;;;;19.52;82.97;101794.00;5072134;28;20454;-54
2022/09/11 07:20:22;;;;;;;10.03;9.53;;;;;;;19.13;82.98;101792.63;5073011;28;20500;-50
2022/09/11 07:22:50;;;;;;;9.57;9.17;;;;;;;18.99;83.93;101788.44;5072992;28;20430;-54
2022/09/11 07:25:17;;;;;;;9.30;8.80;;;;;;;18.50;83.33;101784.81;5073316;28;20429;-54
2022/09/11 07:27:45;;;;;;;10.37;9.87;;;;;;;18.49;86.02;101783.16;5072827;28;20461;-54
2022/09/11 07:30:13;;;;;;;9.83;9.33;;;;;;;18.54;87.20;101785.19;5073054;28;20434;-49
2022/09/11 07:32:41;;;;;;;11.23;10.53;;;;;;;18.35;89.28;101792.41;5073569;28;20507;-50
2022/09/11 07:35:10;;;;;;;11.20;10.33;;;;;;;18.27;89.73;101787.31;5073054;28;20566;-52
2022/09/11 07:37:38;;;;;;;12.00;11.20;;;;;;;18.66;92.17;101794.22;5072397;28;20457;-54
2022/09/11 07:40:06;;;;;;;10.47;9.97;;;;;;;18.90;90.02;101782.50;5072945;28;20479;-53
2022/09/11 07:42:34;;;;;;;9.37;8.97;;;;;;;18.93;86.79;101790.16;5072561;28;20460;-49
2022/09/11 07:45:01;;;;;;;10.80;10.20;;;;;;;19.26;88.31;101787.06;5072861;28;20491;-49
2022/09/11 07:47:29;;;;;;;9.67;9.07;;;;;;;19.26;85.23;101792.47;5070921;28;20457;-49
2022/09/11 07:49:57;;;;;;;8.60;8.10;;;;;;;19.62;85.57;101788.88;5072885;28;20838;-47
2022/09/11 07:52:26;;;;;;;8.83;8.37;;;;;;;19.86;81.73;101787.88;5072346;28;20450;-50
2022/09/11 07:54:53;;;;;;;8.10;7.60;;;;;;;20.03;81.45;101791.53;5072465;28;20931;-46
2022/09/11 07:57:23;;;;;;;7.83;7.33;;;;;;;19.90;82.07;101786.31;5071687;28;20454;-46
2022/09/11 07:59:50;;;;;;;8.20;7.70;;;;;;;19.69;82.90;101792.28;5072374;28;20456;-52
2022/09/11 08:02:18;;;;;;;7.83;7.43;;;;;;;19.64;84.52;101794.88;5070660;28;20539;-55
2022/09/11 08:04:46;;;;;;;7.90;7.40;;;;;;;19.58;85.30;101795.78;5072524;28;20438;-48
2022/09/11 08:07:15;;;;;;;8.40;7.70;;;;;;;19.43;86.10;101796.19;5071458;28;20986;-49
2022/09/11 08:09:44;;;;;;;7.77;7.37;;;;;;;19.53;88.87;101801.06;5072469;28;20479;-51
2022/09/11 08:12:12;;;;;;;8.03;7.67;;;;;;;19.53;87.19;101801.91;5072042;28;20445;-52
2022/09/11 08:14:39;;;;;;;7.90;7.50;;;;;;;19.33;87.45;101799.41;5071926;28;20838;-49
2022/09/11 08:17:07;;;;;;;7.87;7.47;;;;;;;19.14;86.60;101803.22;5071617;28;20484;-49
2022/09/11 08:19:35;;;;;;;7.83;7.33;;;;;;;19.02;87.21;101810.44;5072298;28;20433;-49
2022/09/11 08:22:02;;;;;;;7.10;6.60;;;;;;;19.08;89.09;101809.53;5071870;28;20481;-52
2022/09/11 08:24:30;;;;;;;7.77;7.47;;;;;;;19.13;87.41;101806.97;5071838;28;21004;-49
2022/09/11 08:26:59;;;;;;;7.47;7.10;;;;;;;19.19;88.45;101802.53;5071380;28;20465;-49
2022/09/11 08:29:27;;;;;;;7.40;6.80;;;;;;;19.13;89.13;101809.69;5071961;28;20434;-54
2022/09/11 08:31:54;;;;;;;7.10;6.80;;;;;;;19.43;91.12;101811.59;5072163;28;20454;-48
2022/09/11 08:34:28;;;;;;;6.87;6.53;;;;;;;19.37;90.33;101804.38;5070803;28;20513;-53
2022/09/11 08:36:56;;;;;;;7.03;6.73;;;;;;;19.50;89.20;101809.63;5071587;28;20466;-49
2022/09/11 08:39:24;;;;;;;8.00;7.50;;;;;;;19.50;87.76;101813.19;5071645;28;20475;-48
2022/09/11 08:41:56;;;;;;;7.67;7.17;;;;;;;19.44;87.07;101815.97;5060818;28;20479;-50
2022/09/11 08:44:28;;;;;;;6.70;6.27;;;;;;;19.40;86.97;101814.75;5051648;28;20438;-49
2022/09/11 08:47:05;;;;;;;5.80;5.60;;;;;;;19.25;87.31;101823.25;5050721;28;20512;-48
2022/09/11 08:49:38;;;;;;;6.70;6.43;;;;;;;19.65;88.75;101818.16;5051113;28;20427;-47
2022/09/11 08:52:08;;;;;;;6.47;6.07;;;;;;;19.96;83.30;101814.34;5055863;28;20449;-49
2022/09/11 08:54:38;;;;;;;6.17;5.97;;;;;;;19.93;81.92;101817.53;5071603;28;20491;-51
2022/09/11 08:57:16;;;;;;;5.30;5.03;;;;;;;19.41;82.96;101828.06;5071177;28;20462;-49
2022/09/11 09:00:02;;;;;;;5.43;5.23;;;;;;;18.91;82.83;101829.25;5071554;28;20551;-52
2022/09/11 09:02:45;;;;;;;5.80;5.50;;;;;;;19.52;84.87;101823.75;5070492;28;20527;-50
2022/09/11 09:05:25;;;;;;;5.40;5.20;;;;;;;19.63;81.43;101820.25;5072032;28;20422;-48
2022/09/11 09:08:06;;;;;;;5.63;5.43;;;;;;;19.65;80.32;101826.28;5069434;28;20990;-52
2022/09/11 09:10:47;;;;;;;5.23;5.03;;;;;;;19.52;78.31;101827.28;5070845;28;20980;-48
2022/09/11 09:13:29;;;;;;;6.00;5.60;;;;;;;19.69;79.75;101822.88;5071247;28;20838;-48
2022/09/11 09:16:08;;;;;;;5.47;5.30;;;;;;;19.89;77.86;101822.59;5070597;28;20462;-49
2022/09/11 09:18:40;;;;;;;5.13;5.00;;;;;;;19.94;78.20;101817.31;5047155;28;20516;-50
2022/09/11 09:21:14;;;;;;;4.93;4.73;;;;;;;19.62;75.90;101827.53;5069877;28;21012;-46
2022/09/11 09:23:47;;;;;;;5.10;4.90;;;;;;;20.02;75.81;101825.06;5071281;28;20441;-49
2022/09/11 09:26:17;;;;;;;4.93;4.73;;;;;;;19.69;75.89;101831.00;5071186;28;20480;-49
2022/09/11 09:28:46;;;;;;;4.53;4.30;;;;;;;19.43;75.97;101833.25;5070450;28;20992;-47
2022/09/11 09:31:19;;;;;;;5.73;5.13;;;;;;;19.50;76.86;101828.59;5075271;28;20499;-50
2022/09/11 09:33:52;;;;;;;5.37;5.10;;;;;;;19.69;78.39;101828.28;5070923;28;20540;-49
2022/09/11 09:36:24;;;;;;;5.00;4.80;;;;;;;20.01;76.35;101825.31;5072586;28;20539;-49
2022/09/11 09:38:52;;;;;;;5.10;4.90;;;;;;;20.10;75.31;101824.72;5070461;28;21085;-49
2022/09/11 09:42:01;;;;;;;5.13;4.83;;;;;;;20.47;74.08;101832.69;5073160;28;20453;-52
2022/09/11 09:44:46;;;;;;;5.23;4.93;;;;;;;20.80;72.17;101819.34;5015980;28;20487;-54
2022/09/11 09:47:15;;;;;;;6.10;5.40;;;;;;;20.93;71.11;101835.38;5061670;28;20911;-52
2022/09/11 09:49:44;;;;;;;6.53;6.23;;;;;;;21.32;71.42;101828.34;5073207;28;20526;-50
2022/09/11 09:52:17;;;;;;;6.90;6.70;;;;;;;21.50;68.26;101834.41;5072003;28;20796;-50
2022/09/11 09:54:55;;;;;;;6.80;6.60;;;;;;;21.49;66.34;101835.47;5073823;28;20487;-49
2022/09/11 09:57:26;;;;;;;7.20;7.00;;;;;;;21.67;66.47;101831.75;5074309;28;20425;-52
2022/09/11 10:00:01;;;;;;;7.50;7.20;;;;;;;21.60;68.10;101835.66;5072831;28;20519;-47
2022/09/11 10:02:38;;;;;;;8.53;8.23;;;;;;;21.71;66.51;101830.19;5074246;28;20511;-48
2022/09/11 10:05:16;;;;;;;8.43;8.10;;;;;;;21.19;67.87;101840.31;5079258;28;20437;-54
2022/09/11 10:07:49;;;;;;;7.60;7.40;;;;;;;20.80;66.30;101843.75;5074510;28;20487;-49
2022/09/11 10:10:23;;;;;;;8.00;7.70;;;;;;;20.46;67.95;101844.59;5074175;28;20511;-51
2022/09/11 10:12:51;;;;;;;7.47;7.27;;;;;;;20.13;68.83;101843.22;5074530;28;20426;-53
2022/09/11 10:15:41;;;;;;;7.40;7.20;;;;;;;20.29;70.92;101844.47;5074602;28;20487;-48
2022/09/11 10:18:34;;;;;;;8.10;7.80;;;;;;;20.11;69.62;101848.06;5091673;28;20508;-49
2022/09/11 10:21:28;;;;;;;7.70;7.40;;;;;;;20.30;70.73;101844.25;5074229;28;20495;-48
2022/09/11 10:23:57;;;;;;;8.40;8.10;;;;;;;20.74;66.34;101842.81;5053901;28;20883;-46
2022/09/11 10:26:29;;;;;;;8.13;7.70;;;;;;;21.08;63.63;101837.59;5054384;28;20496;-50
2022/09/11 10:29:01;;;;;;;7.13;6.93;;;;;;;21.65;64.69;101842.03;5053652;28;20480;-49
2022/09/11 10:31:29;;;;;;;6.37;6.07;;;;;;;22.10;62.25;101838.50;5054145;28;20497;-52
2022/09/11 10:33:59;;;;;;;6.30;6.10;;;;;;;22.46;62.33;101835.28;5053513;28;20484;-48
2022/09/11 10:36:30;;;;;;;6.70;6.50;;;;;;;21.75;63.37;101839.47;5054097;28;20427;-50
2022/09/11 10:39:00;;;;;;;6.17;5.97;;;;;;;21.18;63.32;101844.06;5064476;28;20430;-47
2022/09/11 10:41:31;;;;;;;5.50;5.40;;;;;;;20.70;63.19;101851.66;5071065;28;20572;-47
2022/09/11 10:44:01;;;;;;;5.10;5.00;;;;;;;20.30;63.38;101846.94;5073607;28;20527;-47
2022/09/11 10:46:31;;;;;;;4.80;4.70;;;;;;;20.27;63.02;101850.13;5073884;28;20973;-51
2022/09/11 10:49:16;;;;;;;5.00;4.57;;;;;;;20.10;62.64;101842.88;5071741;28;20481;-50
2022/09/11 10:51:59;;;;;;;5.17;4.97;;;;;;;20.19;62.47;101850.41;5073656;28;20441;-49
2022/09/11 10:54:37;;;;;;;4.63;4.53;;;;;;;20.39;63.67;101842.84;5073549;28;20528;-47
2022/09/11 10:57:15;;;;;;;5.27;4.97;;;;;;;20.48;61.40;101851.44;5073471;28;20477;-50
2022/09/11 10:59:59;;;;;;;4.87;4.57;;;;;;;20.87;59.97;101848.00;5073196;28;20994;-47
2022/09/11 11:02:30;;;;;;;4.40;4.30;;;;;;;21.01;60.37;101847.72;5072763;28;20507;-47
2022/09/11 11:05:04;;;;;;;3.87;3.67;;;;;;;20.94;56.41;101842.44;5073632;28;20551;-47
2022/09/11 11:07:52;;;;;;;4.10;4.00;;;;;;;21.16;55.80;101838.06;5073475;28;20426;-50
2022/09/11 11:10:33;;;;;;;4.27;4.17;;;;;;;21.29;60.79;101839.69;5073017;28;20886;-52
2022/09/11 11:13:14;;;;;;;4.67;4.57;;;;;;;21.52;57.03;101831.47;5073252;28;20425;-47
2022/09/11 11:15:52;;;;;;;4.50;4.30;;;;;;;21.88;55.71;101827.53;5071872;28;20434;-51
2022/09/11 11:18:42;;;;;;;4.20;4.10;;;;;;;22.02;55.28;101823.41;5073057;28;20426;-47
2022/09/11 11:21:28;;;;;;;4.27;3.87;;;;;;;22.11;55.19;101826.53;5072907;28;20820;-47
2022/09/11 11:24:11;;;;;;;4.60;4.50;;;;;;;22.02;54.79;101826.13;5072846;28;20708;-52